Time;durP1;ratioP1;P1;durP2;ratioP2;P2;SDS_P1;SDS_P2;PMS_P1;PMS_P2;Temp;Humidity;BMP_temperature;BMP_pressure;BME280_temperature;BME280_humidity;BME280_pressure;Samples;Min_cycle;Max_cycle;Signal;HPM_P1;HPM_P2
2021/10/03 00:00:37;;;;;;;12.23;2.95;;;;;;;19.50;34.99;98424.44;4916215;29;20540;-83
2021/10/03 00:03:09;;;;;;;6.30;1.70;;;;;;;19.33;35.32;98427.13;4916872;29;20032;-83
2021/10/03 00:05:36;;;;;;;4.13;1.67;;;;;;;19.23;35.60;98432.91;4919771;29;20436;-82
2021/10/03 00:08:04;;;;;;;4.70;1.45;;;;;;;19.28;35.54;98429.63;4918466;29;20376;-83
2021/10/03 00:10:29;;;;;;;3.90;1.63;;;;;;;19.19;35.66;98432.94;4919679;29;20112;-85
2021/10/03 00:13:02;;;;;;;7.35;1.75;;;;;;;19.03;36.12;98435.66;4919653;29;20107;-82
2021/10/03 00:15:28;;;;;;;5.43;1.73;;;;;;;18.93;36.25;98426.38;4919701;29;20051;-85
2021/10/03 00:17:55;;;;;;;5.50;1.73;;;;;;;18.84;36.53;98426.16;4919531;29;20034;-84
2021/10/03 00:20:21;;;;;;;5.75;2.13;;;;;;;18.93;36.45;98417.28;4919478;29;20040;-83
2021/10/03 00:22:46;;;;;;;6.53;1.85;;;;;;;18.96;36.29;98430.25;4919425;29;20391;-84
2021/10/03 00:25:13;;;;;;;3.15;1.48;;;;;;;18.94;36.55;98418.84;4918109;29;20125;-85
2021/10/03 00:27:40;;;;;;;7.90;3.53;;;;;;;18.91;36.45;98416.94;4919323;29;20028;-83
2021/10/03 00:30:07;;;;;;;4.53;1.42;;;;;;;19.10;36.35;98416.13;4919283;29;20035;-84
2021/10/03 00:32:32;;;;;;;5.43;1.60;;;;;;;19.05;36.34;98402.81;4918973;29;20042;-83
2021/10/03 00:34:58;;;;;;;6.70;1.50;;;;;;;19.15;36.28;98418.41;4918983;29;20115;-83
2021/10/03 00:37:24;;;;;;;3.58;1.52;;;;;;;19.17;36.31;98413.22;4918889;29;20535;-84
2021/10/03 00:39:49;;;;;;;4.10;1.30;;;;;;;19.16;36.55;98405.34;4919184;29;20531;-84
2021/10/03 00:42:16;;;;;;;4.20;1.48;;;;;;;19.20;36.47;98408.84;4919100;29;20059;-83
2021/10/03 00:44:41;;;;;;;4.18;2.38;;;;;;;19.16;36.80;98405.34;4919003;29;20052;-83
2021/10/03 00:47:07;;;;;;;5.72;1.25;;;;;;;19.36;36.54;98403.34;4918982;29;20063;-84
2021/10/03 00:49:36;;;;;;;6.40;1.73;;;;;;;19.67;35.72;98398.34;4918829;29;20059;-83
2021/10/03 00:52:06;;;;;;;6.00;1.38;;;;;;;19.77;35.88;98394.53;4918918;29;20032;-83
2021/10/03 00:54:34;;;;;;;3.50;1.52;;;;;;;19.80;35.80;98393.69;4918840;29;20020;-84
2021/10/03 00:57:00;;;;;;;2.80;1.55;;;;;;;19.91;35.73;98388.66;4918704;29;20483;-83
2021/10/03 00:59:26;;;;;;;4.00;1.55;;;;;;;19.84;35.87;98390.81;4918203;29;20052;-84
2021/10/03 01:01:53;;;;;;;7.03;1.27;;;;;;;19.88;35.86;98391.53;4918709;29;20043;-83
2021/10/03 01:04:18;;;;;;;3.40;0.98;;;;;;;19.47;36.70;98392.81;4918439;29;20494;-82
2021/10/03 01:06:45;;;;;;;6.18;1.27;;;;;;;19.54;36.62;98378.03;4918747;29;20036;-83
2021/10/03 01:09:12;;;;;;;3.03;1.75;;;;;;;19.65;36.39;98378.63;4918572;29;20111;-83
2021/10/03 01:11:37;;;;;;;6.13;1.48;;;;;;;19.50;36.49;98374.56;4917041;29;20028;-83
2021/10/03 01:14:03;;;;;;;2.30;0.93;;;;;;;19.30;36.93;98372.63;4916460;29;20038;-82
2021/10/03 01:16:29;;;;;;;1.48;0.68;;;;;;;19.57;36.41;98378.00;4916906;29;20028;-84
2021/10/03 01:18:58;;;;;;;4.80;1.63;;;;;;;19.49;36.50;98373.00;4916870;29;20036;-83
2021/10/03 01:21:25;;;;;;;5.13;1.38;;;;;;;19.52;36.41;98375.69;4918065;29;20024;-82
2021/10/03 01:23:56;;;;;;;6.28;1.27;;;;;;;19.50;36.66;98369.03;4918001;29;20134;-84
2021/10/03 01:26:22;;;;;;;4.38;1.00;;;;;;;19.40;36.77;98374.38;4917929;29;20035;-83
2021/10/03 01:28:48;;;;;;;4.05;1.50;;;;;;;19.55;36.46;98368.50;4918002;29;20067;-83
2021/10/03 01:31:14;;;;;;;3.20;1.20;;;;;;;19.48;36.71;98374.97;4917806;29;20110;-83
2021/10/03 01:33:40;;;;;;;5.13;1.15;;;;;;;19.35;36.89;98371.34;4917820;29;20136;-79
2021/10/03 01:36:06;;;;;;;4.32;1.27;;;;;;;19.41;36.74;98364.84;4917547;29;20067;-76
2021/10/03 01:38:36;;;;;;;2.97;1.20;;;;;;;19.46;36.81;98362.78;4915969;29;20118;-84
2021/10/03 01:41:02;;;;;;;2.22;0.98;;;;;;;19.58;36.48;98362.16;4917928;29;20051;-83
2021/10/03 01:43:28;;;;;;;4.97;1.20;;;;;;;19.40;37.13;98354.97;4917786;29;20028;-83
2021/10/03 01:45:54;;;;;;;5.95;1.27;;;;;;;19.57;36.83;98349.50;4917888;29;20028;-84
2021/10/03 01:48:22;;;;;;;3.88;1.30;;;;;;;19.53;37.00;98354.31;4917558;29;20028;-84
2021/10/03 01:50:51;;;;;;;5.30;1.30;;;;;;;19.50;36.92;98350.44;4917695;29;20103;-82
2021/10/03 01:53:22;;;;;;;4.30;1.30;;;;;;;19.71;36.73;98345.63;4917659;29;20020;-84
2021/10/03 01:55:48;;;;;;;4.70;1.13;;;;;;;19.75;36.67;98352.63;4917679;29;20032;-85
2021/10/03 01:58:16;;;;;;;5.43;1.48;;;;;;;19.67;37.03;98351.25;4917353;29;20119;-84
2021/10/03 02:00:45;;;;;;;3.72;1.42;;;;;;;19.69;37.00;98343.28;4917665;29;20032;-84
2021/10/03 02:03:11;;;;;;;5.68;1.60;;;;;;;19.73;37.15;98343.22;4917469;29;20039;-83
2021/10/03 02:05:43;;;;;;;5.32;1.30;;;;;;;19.83;36.98;98334.63;4917419;29;20032;-83
2021/10/03 02:08:10;;;;;;;5.60;1.40;;;;;;;19.91;36.96;98322.16;4917387;29;20096;-83
2021/10/03 02:10:38;;;;;;;5.07;1.45;;;;;;;19.85;37.30;98321.13;4917330;29;20428;-83
2021/10/03 02:13:05;;;;;;;5.43;1.30;;;;;;;19.91;37.23;98322.16;4917339;29;20035;-82
2021/10/03 02:15:32;;;;;;;8.82;1.70;;;;;;;19.91;37.17;98319.38;4917366;29;20372;-83
2021/10/03 02:17:58;;;;;;;4.45;1.30;;;;;;;19.89;37.32;98313.50;4917136;29;20082;-84
2021/10/03 02:20:25;;;;;;;4.60;1.30;;;;;;;19.95;37.27;98317.31;4917327;29;20032;-85
2021/10/03 02:22:52;;;;;;;4.13;1.30;;;;;;;19.93;37.51;98313.41;4917032;29;20039;-84
2021/10/03 02:25:18;;;;;;;1.83;0.80;;;;;;;19.80;37.81;98304.22;4916938;29;20024;-76
2021/10/03 02:27:45;;;;;;;1.90;1.00;;;;;;;19.70;37.96;98308.81;4916879;29;20035;-81
2021/10/03 02:30:11;;;;;;;4.63;1.65;;;;;;;19.66;38.10;98310.91;4917152;29;20050;-80
2021/10/03 02:32:37;;;;;;;4.00;1.35;;;;;;;19.77;37.94;98316.19;4916901;29;20484;-83
2021/10/03 02:35:06;;;;;;;5.47;1.30;;;;;;;19.74;38.11;98312.28;4916966;29;20040;-83
2021/10/03 02:37:32;;;;;;;5.78;1.67;;;;;;;19.73;38.21;98307.97;4916898;29;20028;-82
2021/10/03 02:39:58;;;;;;;6.35;1.40;;;;;;;19.83;37.97;98309.69;4916811;29;20028;-81
2021/10/03 02:42:24;;;;;;;3.58;1.27;;;;;;;19.75;38.46;98302.78;4916808;29;20071;-82
2021/10/03 02:44:49;;;;;;;4.80;1.48;;;;;;;19.60;38.80;98298.78;4916848;29;20039;-83
2021/10/03 02:47:15;;;;;;;4.72;1.55;;;;;;;19.67;38.62;98293.06;4916703;29;20036;-82
2021/10/03 02:49:44;;;;;;;6.55;1.25;;;;;;;19.52;39.12;98297.38;4916560;29;20032;-80
2021/10/03 02:52:12;;;;;;;5.63;1.38;;;;;;;19.41;39.76;98295.63;4916611;29;20033;-81
2021/10/03 02:54:39;;;;;;;3.35;1.10;;;;;;;19.55;39.54;98294.50;4916534;29;20131;-82
2021/10/03 02:57:06;;;;;;;10.35;1.75;;;;;;;19.54;39.64;98292.16;4916456;29;20392;-82
2021/10/03 02:59:33;;;;;;;3.65;1.35;;;;;;;19.36;40.11;98284.28;4916173;29;20419;-81
2021/10/03 03:01:59;;;;;;;6.60;1.90;;;;;;;19.58;39.67;98285.38;4915137;29;20410;-83
2021/10/03 03:04:25;;;;;;;6.65;1.90;;;;;;;19.79;39.30;98277.72;4916613;29;20476;-80
2021/10/03 03:06:51;;;;;;;3.78;1.00;;;;;;;19.75;39.43;98283.38;4916446;29;20039;-78
2021/10/03 03:09:17;;;;;;;8.10;3.05;;;;;;;19.84;39.21;98266.91;4915402;29;20039;-82
2021/10/03 03:11:43;;;;;;;4.03;1.73;;;;;;;19.86;39.16;98258.94;4916503;29;20080;-78
2021/10/03 03:14:09;;;;;;;10.75;1.50;;;;;;;19.90;39.06;98256.84;4916378;29;20101;-80
2021/10/03 03:16:43;;;;;;;1.98;1.15;;;;;;;19.86;39.19;98256.16;4916415;29;20047;-82
2021/10/03 03:19:08;;;;;;;4.72;1.10;;;;;;;19.84;39.09;98243.97;4916401;29;20032;-80
2021/10/03 03:21:34;;;;;;;5.38;1.52;;;;;;;19.78;39.45;98240.94;4916294;29;20031;-82
2021/10/03 03:24:00;;;;;;;6.00;1.52;;;;;;;19.62;39.79;98254.81;4916322;29;20036;-79
2021/10/03 03:26:25;;;;;;;4.38;1.40;;;;;;;19.84;39.41;98255.81;4916227;29;20025;-81
2021/10/03 03:28:51;;;;;;;5.72;1.48;;;;;;;19.79;39.49;98241.72;4916278;29;20080;-81
2021/10/03 03:31:17;;;;;;;4.03;1.17;;;;;;;19.86;39.37;98241.53;4916285;29;20482;-79
2021/10/03 03:33:43;;;;;;;7.20;1.42;;;;;;;19.86;39.59;98234.00;4916212;29;20498;-79
2021/10/03 03:36:08;;;;;;;5.28;1.27;;;;;;;19.86;39.66;98236.75;4916221;29;20036;-82
2021/10/03 03:38:35;;;;;;;6.82;1.50;;;;;;;19.94;39.55;98232.59;4919239;29;20032;-83
2021/10/03 03:41:02;;;;;;;4.63;1.10;;;;;;;19.89;39.63;98235.91;4919800;29;20112;-80
2021/10/03 03:43:28;;;;;;;5.07;1.05;;;;;;;19.83;39.94;98242.41;4919647;29;20031;-81
2021/10/03 03:45:54;;;;;;;4.43;1.00;;;;;;;19.92;39.94;98232.25;4919718;29;20028;-82
2021/10/03 03:48:19;;;;;;;5.75;1.08;;;;;;;19.90;39.87;98240.22;4919745;29;20160;-82
2021/10/03 03:50:45;;;;;;;8.05;1.65;;;;;;;19.90;40.03;98234.69;4919676;29;20084;-83
2021/10/03 03:53:11;;;;;;;7.30;1.48;;;;;;;19.83;40.21;98231.31;4919700;29;20024;-82
2021/10/03 03:55:36;;;;;;;5.88;1.40;;;;;;;19.84;40.35;98233.66;4919565;29;20496;-82
2021/10/03 03:58:02;;;;;;;7.15;1.55;;;;;;;20.00;40.03;98234.84;4919554;29;20032;-79
2021/10/03 04:00:28;;;;;;;5.30;1.13;;;;;;;20.03;40.02;98245.06;4919199;29;20114;-83
2021/10/03 04:02:53;;;;;;;3.40;1.10;;;;;;;19.90;40.47;98237.47;4919364;29;20177;-82
2021/10/03 04:05:19;;;;;;;5.00;1.17;;;;;;;20.11;39.93;98235.34;4919203;29;20034;-83
2021/10/03 04:07:44;;;;;;;5.53;1.35;;;;;;;19.94;40.41;98238.13;4919183;29;20361;-79
2021/10/03 04:10:10;;;;;;;6.18;1.38;;;;;;;19.91;40.57;98230.69;4919249;29;20479;-83
2021/10/03 04:12:36;;;;;;;4.90;1.15;;;;;;;19.91;40.68;98244.56;4919316;29;20035;-82
2021/10/03 04:15:01;;;;;;;6.82;1.10;;;;;;;19.91;40.81;98238.25;4919224;29;20031;-79
2021/10/03 04:17:27;;;;;;;4.57;1.15;;;;;;;20.03;40.50;98236.75;4918927;29;20059;-81
2021/10/03 04:19:52;;;;;;;6.38;1.00;;;;;;;19.98;40.78;98238.06;4918315;29;20036;-82
2021/10/03 04:22:18;;;;;;;3.17;1.20;;;;;;;19.77;41.37;98242.16;4916689;29;20039;-81
2021/10/03 04:24:43;;;;;;;4.22;1.30;;;;;;;19.84;41.24;98241.19;4918758;29;20032;-79
2021/10/03 04:27:09;;;;;;;2.60;0.95;;;;;;;19.93;41.00;98244.13;4918944;29;20092;-81
2021/10/03 04:29:35;;;;;;;3.67;1.20;;;;;;;19.58;42.35;98243.84;4918919;29;20032;-79
2021/10/03 04:32:00;;;;;;;3.30;1.48;;;;;;;19.49;42.63;98238.06;4918835;29;20467;-79
2021/10/03 04:34:26;;;;;;;2.72;1.05;;;;;;;19.78;42.01;98246.47;4918774;29;20107;-76
2021/10/03 04:36:52;;;;;;;4.30;0.95;;;;;;;19.81;42.12;98245.63;4918749;29;20039;-81
2021/10/03 04:39:17;;;;;;;2.65;1.00;;;;;;;19.65;42.58;98249.19;4918683;29;20032;-80
2021/10/03 04:41:43;;;;;;;7.20;1.45;;;;;;;19.83;42.42;98262.59;4917495;29;20394;-81
2021/10/03 04:44:09;;;;;;;6.07;1.63;;;;;;;19.83;42.37;98261.81;4918610;29;20028;-81
2021/10/03 04:46:34;;;;;;;5.32;1.30;;;;;;;19.64;43.04;98267.00;4917210;29;20070;-80
2021/10/03 04:49:00;;;;;;;4.57;1.60;;;;;;;19.75;42.78;98266.75;4916678;29;20039;-76
2021/10/03 04:51:26;;;;;;;5.47;1.35;;;;;;;19.50;43.52;98253.50;4918479;29;20033;-82
2021/10/03 04:53:51;;;;;;;4.15;1.27;;;;;;;19.15;44.50;98266.19;4918449;29;20036;-77
2021/10/03 04:56:17;;;;;;;6.85;1.75;;;;;;;19.35;44.26;98272.44;4917031;29;20039;-83
2021/10/03 04:58:42;;;;;;;7.47;1.48;;;;;;;19.25;44.55;98270.69;4918135;29;20411;-82
2021/10/03 05:01:09;;;;;;;3.35;1.30;;;;;;;19.55;43.62;98271.56;4918267;29;20035;-78
2021/10/03 05:03:36;;;;;;;6.28;1.85;;;;;;;19.69;43.29;98274.03;4918164;29;20035;-79
2021/10/03 05:06:07;;;;;;;4.00;1.23;;;;;;;19.52;43.65;98270.47;4918475;29;20494;-80
2021/10/03 05:08:33;;;;;;;8.00;1.40;;;;;;;19.59;43.28;98283.38;4918125;29;20383;-81
2021/10/03 05:10:58;;;;;;;3.00;1.23;;;;;;;19.68;43.17;98286.31;4918203;29;20103;-79
2021/10/03 05:13:24;;;;;;;3.97;1.52;;;;;;;19.45;43.64;98289.22;4918126;29;20039;-77
2021/10/03 05:15:49;;;;;;;6.65;2.10;;;;;;;19.68;43.06;98291.84;4918004;29;20553;-76
2021/10/03 05:18:15;;;;;;;5.68;1.90;;;;;;;19.63;43.05;98289.59;4916567;29;20040;-80
2021/10/03 05:20:41;;;;;;;6.15;1.60;;;;;;;19.59;43.24;98294.47;4917841;29;20028;-79
2021/10/03 05:23:06;;;;;;;6.15;1.50;;;;;;;19.68;42.84;98295.41;4917731;29;20028;-78
2021/10/03 05:25:32;;;;;;;6.35;1.65;;;;;;;19.49;43.40;98306.53;4916579;29;20028;-81
2021/10/03 05:27:58;;;;;;;3.58;1.50;;;;;;;19.54;43.31;98306.78;4917783;29;20083;-82
2021/10/03 05:30:23;;;;;;;6.03;1.73;;;;;;;19.31;43.82;98304.97;4917734;29;20410;-80
2021/10/03 05:32:50;;;;;;;6.43;1.88;;;;;;;19.51;43.32;98307.69;4917664;29;20527;-82
2021/10/03 05:35:15;;;;;;;5.40;1.67;;;;;;;19.59;43.17;98303.56;4917735;29;20083;-82
2021/10/03 05:37:41;;;;;;;7.20;1.50;;;;;;;19.50;43.40;98311.66;4917199;29;20491;-80
2021/10/03 05:40:07;;;;;;;5.22;1.55;;;;;;;19.57;43.21;98310.72;4917713;29;20491;-80
2021/10/03 05:42:33;;;;;;;3.17;1.52;;;;;;;19.81;42.61;98314.91;4916254;29;20028;-80
2021/10/03 05:44:58;;;;;;;3.58;1.30;;;;;;;19.82;42.69;98315.66;4917408;29;20028;-82
2021/10/03 05:47:24;;;;;;;6.55;2.05;;;;;;;19.59;43.50;98311.84;4917384;29;20480;-79
2021/10/03 05:49:49;;;;;;;9.52;2.15;;;;;;;19.73;43.24;98305.19;4915986;29;20032;-81
2021/10/03 05:52:15;;;;;;;10.60;2.65;;;;;;;19.76;43.23;98300.78;4916195;29;20521;-78
2021/10/03 05:54:41;;;;;;;8.73;1.95;;;;;;;20.05;42.60;98306.38;4917675;29;20032;-80
2021/10/03 05:57:06;;;;;;;5.63;1.38;;;;;;;19.84;43.13;98302.16;4916368;29;20031;-79
2021/10/03 05:59:32;;;;;;;6.95;2.10;;;;;;;19.80;43.25;98305.03;4918325;29;20496;-76
2021/10/03 06:01:57;;;;;;;6.88;2.65;;;;;;;19.80;43.26;98310.56;4914759;29;20123;-79
2021/10/03 06:04:23;;;;;;;9.48;2.97;;;;;;;19.74;43.53;98306.75;4915549;29;20043;-76
2021/10/03 06:06:49;;;;;;;5.28;1.55;;;;;;;19.77;43.29;98305.09;4917057;29;20031;-80
2021/10/03 06:09:14;;;;;;;7.30;1.73;;;;;;;19.93;42.91;98316.94;4916987;29;20032;-79
2021/10/03 06:11:40;;;;;;;9.63;2.47;;;;;;;20.00;42.63;98323.53;4916966;29;20028;-80
2021/10/03 06:14:05;;;;;;;5.75;1.80;;;;;;;19.81;43.26;98317.66;4917073;29;20032;-83
2021/10/03 06:16:31;;;;;;;7.05;2.17;;;;;;;19.75;43.40;98321.38;4915733;29;20040;-79
2021/10/03 06:18:57;;;;;;;7.57;2.10;;;;;;;19.72;43.53;98325.00;4916811;29;20031;-80
2021/10/03 06:21:25;;;;;;;6.97;2.30;;;;;;;19.35;44.61;98327.81;4916824;29;20107;-80
2021/10/03 06:23:51;;;;;;;8.35;1.95;;;;;;;19.68;43.60;98319.56;4916830;29;20084;-79
2021/10/03 06:26:18;;;;;;;7.70;1.70;;;;;;;19.78;43.37;98318.50;4916953;29;20652;-78
2021/10/03 06:28:44;;;;;;;5.20;2.13;;;;;;;19.65;43.79;98321.22;4916765;29;20510;-82
2021/10/03 06:31:11;;;;;;;6.90;2.53;;;;;;;19.45;44.34;98325.22;4916766;29;20032;-76
2021/10/03 06:33:37;;;;;;;9.10;2.42;;;;;;;19.34;44.89;98329.00;4916560;29;20038;-78
2021/10/03 06:36:04;;;;;;;6.57;1.80;;;;;;;19.36;44.75;98343.22;4916470;29;20487;-78
2021/10/03 06:38:30;;;;;;;5.95;1.98;;;;;;;19.75;44.05;98347.09;4916366;29;20140;-77
2021/10/03 06:40:56;;;;;;;4.35;2.40;;;;;;;19.44;45.10;98345.84;4916598;29;20107;-77
2021/10/03 06:43:21;;;;;;;4.97;1.90;;;;;;;19.38;45.37;98349.09;4916465;29;20028;-77
2021/10/03 06:45:47;;;;;;;8.00;2.15;;;;;;;19.60;44.96;98346.66;4916370;29;20039;-77
2021/10/03 06:48:13;;;;;;;10.05;1.98;;;;;;;19.47;45.13;98347.72;4916393;29;20035;-77
2021/10/03 06:50:38;;;;;;;8.00;2.53;;;;;;;19.84;44.17;98338.94;4916372;29;20024;-78
2021/10/03 06:53:04;;;;;;;8.68;2.20;;;;;;;19.51;45.26;98348.44;4916301;29;20115;-78
2021/10/03 06:55:31;;;;;;;3.60;1.90;;;;;;;19.40;45.53;98349.44;4916305;29;20070;-76
2021/10/03 06:57:59;;;;;;;9.40;1.70;;;;;;;19.71;44.85;98354.69;4914904;29;20028;-78
2021/10/03 07:00:24;;;;;;;7.40;3.10;;;;;;;19.55;45.24;98362.97;4916273;29;20036;-79
2021/10/03 07:02:50;;;;;;;5.85;2.30;;;;;;;19.76;44.77;98368.03;4916060;29;20115;-79
2021/10/03 07:05:16;;;;;;;7.43;1.98;;;;;;;19.61;45.00;98369.59;4916278;29;20036;-77
2021/10/03 07:07:41;;;;;;;9.10;2.33;;;;;;;19.75;44.87;98368.47;4915222;29;20067;-85
2021/10/03 07:10:07;;;;;;;8.85;2.25;;;;;;;19.77;44.61;98375.16;4902790;29;20491;-80
2021/10/03 07:12:33;;;;;;;4.38;1.60;;;;;;;19.74;44.88;98375.25;4909113;29;20043;-84
2021/10/03 07:14:58;;;;;;;6.20;1.77;;;;;;;19.85;44.58;98379.31;4908768;29;20107;-80
2021/10/03 07:17:24;;;;;;;7.05;1.55;;;;;;;20.16;43.76;98396.38;4908875;29;20028;-81
2021/10/03 07:19:49;;;;;;;8.40;1.92;;;;;;;20.36;43.22;98395.50;4908839;29;20036;-83
2021/10/03 07:22:15;;;;;;;6.63;1.67;;;;;;;20.21;44.00;98401.41;4914483;29;20036;-88
2021/10/03 07:24:41;;;;;;;6.85;2.00;;;;;;;20.20;44.07;98402.63;4904822;29;20040;-79
2021/10/03 07:27:07;;;;;;;7.10;1.58;;;;;;;20.24;43.88;98408.06;4912609;29;20039;-85
2021/10/03 07:29:34;;;;;;;12.68;2.15;;;;;;;20.07;44.34;98412.06;4920846;29;20487;-86
2021/10/03 07:32:00;;;;;;;9.05;2.75;;;;;;;20.19;43.89;98411.38;4916394;29;20107;-87
2021/10/03 07:34:26;;;;;;;5.70;1.23;;;;;;;20.30;43.67;98411.88;4906316;29;20572;-90
2021/10/03 07:36:51;;;;;;;5.57;1.33;;;;;;;20.16;44.14;98437.16;4905314;29;20395;-81
2021/10/03 07:39:17;;;;;;;6.43;1.50;;;;;;;20.24;44.05;98431.00;4907852;29;20115;-85
2021/10/03 07:41:42;;;;;;;5.95;2.03;;;;;;;20.22;44.37;98441.00;4913065;29;20050;-84
2021/10/03 07:44:08;;;;;;;7.07;1.75;;;;;;;20.21;44.31;98442.22;4905193;29;20032;-85
2021/10/03 07:46:33;;;;;;;9.50;1.63;;;;;;;20.26;44.20;98458.34;4901098;29;20029;-80
2021/10/03 07:48:59;;;;;;;6.15;1.65;;;;;;;20.50;43.70;98450.63;4915801;29;20124;-80
2021/10/03 07:51:25;;;;;;;8.75;1.90;;;;;;;20.18;44.55;98451.41;4899929;29;20036;-82
2021/10/03 07:53:50;;;;;;;8.30;1.58;;;;;;;20.44;43.87;98461.47;4900249;29;20491;-81
2021/10/03 07:56:16;;;;;;;12.93;2.05;;;;;;;20.00;44.91;98470.44;4900492;29;20509;-80
2021/10/03 07:58:42;;;;;;;8.88;2.03;;;;;;;20.49;43.90;98458.19;4900353;29;20052;-78
2021/10/03 08:01:08;;;;;;;8.77;3.03;;;;;;;20.59;43.47;98480.53;4900506;29;20103;-82
2021/10/03 08:03:33;;;;;;;6.82;1.45;;;;;;;20.53;43.53;98471.94;4900496;29;20116;-82
2021/10/03 08:05:59;;;;;;;9.05;2.42;;;;;;;20.78;43.13;98493.50;4900830;29;20092;-81
2021/10/03 08:08:24;;;;;;;12.50;2.60;;;;;;;20.82;43.23;98485.88;4899742;29;20039;-83
2021/10/03 08:10:50;;;;;;;9.32;1.98;;;;;;;20.65;43.69;98489.91;4901038;29;20041;-84
2021/10/03 08:13:16;;;;;;;11.45;2.15;;;;;;;21.09;42.76;98496.66;4900571;29;20028;-82
2021/10/03 08:15:42;;;;;;;9.98;1.73;;;;;;;20.58;43.72;98493.63;4900167;29;20096;-84
2021/10/03 08:18:10;;;;;;;11.30;1.88;;;;;;;20.59;43.89;98502.72;4900231;29;20032;-82
2021/10/03 08:20:36;;;;;;;11.60;2.17;;;;;;;20.96;43.13;98499.38;4900295;29;20063;-82
2021/10/03 08:23:02;;;;;;;7.60;1.88;;;;;;;20.97;43.28;98509.25;4899696;29;20419;-81
2021/10/03 08:25:28;;;;;;;4.35;1.95;;;;;;;21.18;42.87;98515.47;4898797;29;20028;-82
2021/10/03 08:27:54;;;;;;;4.93;2.17;;;;;;;20.85;43.79;98512.75;4900052;29;20526;-80
2021/10/03 08:30:20;;;;;;;5.15;1.75;;;;;;;21.31;42.96;98519.88;4898766;29;20029;-82
2021/10/03 08:32:45;;;;;;;6.70;1.70;;;;;;;21.16;42.94;98518.69;4906761;29;20036;-82
2021/10/03 08:35:11;;;;;;;8.15;1.92;;;;;;;20.98;43.22;98535.81;4907324;29;20495;-82
2021/10/03 08:37:38;;;;;;;11.68;2.28;;;;;;;21.29;42.68;98532.63;4906959;29;20040;-83
2021/10/03 08:40:08;;;;;;;8.43;1.88;;;;;;;21.03;43.31;98526.19;4911289;29;20036;-84
2021/10/03 08:42:34;;;;;;;8.20;1.80;;;;;;;;;;4906607;29;20025;-80
2021/10/03 08:44:59;;;;;;;6.28;1.73;;;;;;;21.14;42.97;98548.09;4915776;29;20032;-87
2021/10/03 08:47:25;;;;;;;9.93;1.70;;;;;;;21.46;42.28;98558.34;4917929;29;20031;-86
2021/10/03 08:49:54;;;;;;;10.57;2.00;;;;;;;21.62;41.74;98565.88;4919299;29;20028;-83
2021/10/03 08:52:24;;;;;;;5.45;1.83;;;;;;;20.78;43.60;98560.09;4906129;29;20047;-82
2021/10/03 08:54:50;;;;;;;7.55;1.75;;;;;;;21.32;42.87;98567.88;4899730;29;20065;-83
2021/10/03 08:57:16;;;;;;;7.50;1.48;;;;;;;21.82;41.48;98572.03;4900193;29;20029;-88
2021/10/03 09:00:05;;;;;;;10.48;1.88;;;;;;;21.42;42.74;98577.16;4899234;29;20061;-83
2021/10/03 09:03:07;;;;;;;7.97;1.85;;;;;;;21.77;41.65;98589.28;4899535;29;20043;-76
2021/10/03 09:05:46;;;;;;;8.60;1.85;;;;;;;21.91;41.41;98588.84;4914781;29;20560;-79
2021/10/03 09:08:18;;;;;;;3.22;1.20;;;;;;;21.41;42.13;98583.91;4918017;29;20111;-79
2021/10/03 09:10:59;;;;;;;7.72;1.95;;;;;;;22.31;40.57;98617.09;4906180;29;20495;-80
2021/10/03 09:13:46;;;;;;;7.18;2.13;;;;;;;21.98;41.07;98610.88;4905420;29;20035;-79
2021/10/03 09:16:23;;;;;;;4.82;1.70;;;;;;;21.98;41.23;98621.22;4908105;29;20035;-79
2021/10/03 09:18:55;;;;;;;9.68;2.72;;;;;;;21.93;41.44;98619.78;4907108;29;20122;-79
2021/10/03 09:21:30;;;;;;;3.58;1.13;;;;;;;22.05;41.08;98619.03;4906327;29;20047;-80
2021/10/03 09:24:01;;;;;;;5.45;1.83;;;;;;;21.82;41.18;98627.63;4904753;29;20044;-80
2021/10/03 09:26:28;;;;;;;9.68;2.45;;;;;;;22.19;40.41;98630.97;4904290;29;20491;-79
2021/10/03 09:28:53;;;;;;;8.27;1.95;;;;;;;22.07;41.03;98641.63;4903854;29;20032;-79
2021/10/03 09:31:21;;;;;;;6.28;1.40;;;;;;;22.52;39.89;98642.69;4906395;29;20036;-79
2021/10/03 09:33:57;;;;;;;6.03;1.48;;;;;;;22.11;40.97;98647.88;4902174;29;20032;-77
2021/10/03 09:36:33;;;;;;;6.47;2.13;;;;;;;22.15;40.79;98658.91;4906666;29;20096;-79
2021/10/03 09:39:09;;;;;;;9.80;1.85;;;;;;;22.04;40.70;98648.06;4906215;29;20179;-79
2021/10/03 09:41:43;;;;;;;8.10;2.35;;;;;;;22.60;39.70;98658.75;4904122;29;20063;-80
2021/10/03 09:44:14;;;;;;;5.63;1.33;;;;;;;22.55;40.07;98659.31;4907614;29;20036;-80
2021/10/03 09:46:52;;;;;;;5.50;1.50;;;;;;;22.78;39.46;98671.34;4906706;29;20029;-79
2021/10/03 09:49:29;;;;;;;5.05;1.88;;;;;;;22.86;39.48;98667.13;4912122;29;20064;-80
2021/10/03 09:51:56;;;;;;;14.27;7.13;;;;;;;23.46;38.33;98672.72;4911605;29;20471;-79
2021/10/03 09:54:23;;;;;;;11.68;2.30;;;;;;;22.71;39.01;98694.59;4917103;29;20024;-80
2021/10/03 09:56:52;;;;;;;7.85;1.80;;;;;;;23.21;38.16;98684.72;4908558;29;20059;-80
2021/10/03 09:59:19;;;;;;;36.00;2.85;;;;;;;23.20;38.32;98681.16;4900465;29;20647;-78
2021/10/03 10:01:46;;;;;;;8.30;1.60;;;;;;;22.72;39.15;98690.59;4904629;29;20040;-82
2021/10/03 10:04:25;;;;;;;9.65;1.98;;;;;;;22.47;39.37;98696.91;4903244;29;20063;-81
2021/10/03 10:06:51;;;;;;;7.13;2.67;;;;;;;23.46;37.70;98708.97;4904937;29;20508;-79
2021/10/03 10:09:20;;;;;;;8.80;3.17;;;;;;;23.33;37.67;98711.75;4902632;29;20362;-79
2021/10/03 10:11:48;;;;;;;8.88;2.42;;;;;;;23.39;37.35;98709.97;4902847;29;20039;-80
2021/10/03 10:14:16;;;;;;;7.78;1.63;;;;;;;23.01;37.97;98723.16;4903087;29;20039;-80
2021/10/03 10:16:44;;;;;;;11.63;2.80;;;;;;;23.30;37.61;98731.41;4903195;29;20028;-76
2021/10/03 10:19:44;;;;;;;9.23;2.70;;;;;;;23.36;37.54;98722.03;4901936;29;20040;-80
2021/10/03 10:22:15;;;;;;;7.55;2.28;;;;;;;23.41;37.73;98735.38;4903063;29;20162;-79
2021/10/03 10:24:46;;;;;;;6.10;1.35;;;;;;;23.20;37.57;98738.84;4903105;29;20115;-81
2021/10/03 10:27:20;;;;;;;8.55;2.28;;;;;;;23.82;36.57;98744.03;4902359;29;20076;-79
2021/10/03 10:29:54;;;;;;;9.82;2.28;;;;;;;23.43;37.34;98752.44;4903627;29;20130;-78
2021/10/03 10:32:24;;;;;;;10.35;2.05;;;;;;;22.61;38.64;98746.59;4903013;29;20024;-79
2021/10/03 10:35:08;;;;;;;6.80;1.15;;;;;;;22.90;37.85;98751.34;4903176;29;20044;-80
2021/10/03 10:37:59;;;;;;;13.38;2.75;;;;;;;23.16;37.30;98763.28;4901934;29;20059;-80
2021/10/03 10:40:26;;;;;;;10.68;2.55;;;;;;;23.89;36.46;98775.25;4904148;29;20029;-78
2021/10/03 10:43:19;;;;;;;5.72;1.67;;;;;;;23.62;36.23;98764.59;4902970;29;20043;-77
2021/10/03 10:45:46;;;;;;;7.60;1.83;;;;;;;23.72;36.38;98782.97;4904195;29;20031;-81
2021/10/03 10:48:16;;;;;;;6.72;1.67;;;;;;;23.96;35.81;98796.53;4901845;29;20108;-80
2021/10/03 10:50:44;;;;;;;4.75;1.75;;;;;;;23.45;36.70;98807.75;4905316;29;20039;-77
2021/10/03 10:53:25;;;;;;;14.13;2.90;;;;;;;24.03;35.46;98811.03;4900198;29;20029;-82
2021/10/03 10:56:09;;;;;;;12.15;1.92;;;;;;;23.64;35.54;98815.09;4905399;29;20024;-80
2021/10/03 10:58:59;;;;;;;11.48;2.65;;;;;;;24.09;34.69;98822.38;4905442;29;20188;-82
2021/10/03 11:01:30;;;;;;;9.65;2.17;;;;;;;24.17;34.64;98818.09;4904028;29;20020;-78
2021/10/03 11:03:59;;;;;;;14.02;2.92;;;;;;;24.16;34.98;98822.13;4902702;29;20623;-77
2021/10/03 11:06:28;;;;;;;7.85;2.00;;;;;;;24.06;34.40;98823.28;4899900;29;20020;-83
2021/10/03 11:09:16;;;;;;;6.20;2.17;;;;;;;24.01;34.42;98848.94;4902071;29;20051;-80
2021/10/03 11:11:53;;;;;;;8.98;2.58;;;;;;;23.93;34.97;98839.25;4903655;29;20100;-80
2021/10/03 11:14:24;;;;;;;11.02;2.25;;;;;;;24.27;34.32;98850.44;4900968;29;20036;-77
2021/10/03 11:16:52;;;;;;;8.45;1.98;;;;;;;24.71;33.46;98839.38;4902767;29;20060;-77
2021/10/03 11:19:38;;;;;;;5.32;1.40;;;;;;;24.57;34.35;98839.88;4901599;29;20096;-77
2021/10/03 11:22:16;;;;;;;9.45;2.17;;;;;;;24.49;34.69;98844.16;4896281;29;20024;-79
2021/10/03 11:24:47;;;;;;;8.25;1.83;;;;;;;24.88;33.73;98853.91;4895343;29;20037;-79
2021/10/03 11:27:30;;;;;;;4.70;1.70;;;;;;;25.42;33.15;98833.88;4895417;29;20552;-79
2021/10/03 11:29:58;;;;;;;6.03;1.50;;;;;;;25.01;33.74;98837.81;4897214;29;20032;-79
2021/10/03 11:32:34;;;;;;;5.10;1.70;;;;;;;25.10;33.31;98849.09;4897134;29;20439;-80
2021/10/03 11:35:05;;;;;;;7.47;1.40;;;;;;;24.80;32.98;98864.56;4897241;29;20578;-81
2021/10/03 11:37:45;;;;;;;14.27;2.22;;;;;;;24.66;32.92;98870.66;4896336;29;20496;-82